Hidroeletrica Airport


Codes: SBIT/ITR
Name: Hidroeletrica Airport
City: Itumbiara
Country: Brazil
Elevation: 1630 ft.
Wikipedia:

Photos at Hidroeletrica Airport


   Photos courtesy of SpottingLog. You can add your own sightings and photos by signing up for a free trial today.



No photos found.

Weather at Hidroeletrica Airport


Time (UTC)DescriptionTempratureWindCloud coverageVisibilityPressureHumidity
23-May-2024 21:00Scattered Clouds30°C2 mph, NW38%10000m1012hPa31%
24-May-2024 00:00Scattered Clouds26°C4 mph, NE47%10000m1014hPa41%
24-May-2024 03:00Scattered Clouds21°C2 mph, NE31%10000m1015hPa56%
24-May-2024 06:00Broken Clouds20°C4 mph, NE56%10000m1015hPa63%
24-May-2024 09:00Overcast Clouds19°C4 mph, NE95%10000m1015hPa69%
24-May-2024 12:00Broken Clouds26°C7 mph, NE54%10000m1017hPa47%
24-May-2024 15:00Overcast Clouds32°C4 mph, NW98%10000m1015hPa31%
24-May-2024 18:00Overcast Clouds33°C7 mph, W99%10000m1011hPa25%
24-May-2024 21:00Overcast Clouds27°C4 mph, SW100%10000m1012hPa37%
25-May-2024 00:00Overcast Clouds24°C4 mph, NE100%10000m1014hPa45%
25-May-2024 03:00Overcast Clouds25°C0 mph, SW100%10000m1014hPa43%
25-May-2024 06:00Overcast Clouds22°C4 mph, SW100%10000m1014hPa59%
25-May-2024 09:00Overcast Clouds19°C4 mph, SW100%10000m1015hPa89%
25-May-2024 12:00Overcast Clouds24°C7 mph, S86%10000m1017hPa67%
25-May-2024 15:00Clear Sky32°C4 mph, SW10%10000m1015hPa37%
25-May-2024 18:00Clear Sky33°C7 mph, W6%10000m1012hPa34%
25-May-2024 21:00Clear Sky27°C4 mph, W3%10000m1013hPa49%
26-May-2024 00:00Clear Sky23°C11 mph, S1%10000m1016hPa60%
26-May-2024 03:00Clear Sky20°C9 mph, S0%10000m1018hPa67%
26-May-2024 06:00Clear Sky17°C4 mph, S0%10000m1017hPa82%
26-May-2024 09:00Clear Sky17°C2 mph, SW0%10000m1017hPa94%
26-May-2024 12:00Clear Sky23°C7 mph, E6%10000m1019hPa68%
26-May-2024 15:00Clear Sky30°C7 mph, NE0%10000m1016hPa41%
26-May-2024 18:00Clear Sky33°C2 mph, SE0%10000m1012hPa31%
26-May-2024 21:00Clear Sky27°C4 mph, S5%10000m1013hPa42%
27-May-2024 00:00Clear Sky24°C4 mph, SE6%10000m1016hPa54%
27-May-2024 03:00Scattered Clouds21°C4 mph, S49%10000m1016hPa77%
27-May-2024 06:00Scattered Clouds19°C2 mph, SE29%10000m1015hPa88%
27-May-2024 09:00Broken Clouds19°C2 mph, NE70%10000m1016hPa79%
27-May-2024 12:00Broken Clouds25°C9 mph, NE84%10000m1018hPa45%
27-May-2024 15:00Few Clouds32°C9 mph, NE24%10000m1016hPa32%
27-May-2024 18:00Few Clouds34°C4 mph, N12%10000m1013hPa25%
27-May-2024 21:00Clear Sky28°C2 mph, W0%10000m1013hPa36%
28-May-2024 00:00Clear Sky24°C0 mph, W0%10000m1015hPa43%
28-May-2024 03:00Clear Sky22°C7 mph, S4%10000m1016hPa50%
28-May-2024 06:00Clear Sky19°C4 mph, SW2%10000m1017hPa78%
28-May-2024 09:00Clear Sky17°C4 mph, SW2%10000m1018hPa94%
28-May-2024 12:00Few Clouds22°C9 mph, S13%10000m1020hPa72%
28-May-2024 15:00Scattered Clouds27°C9 mph, SW32%10000m1018hPa50%
28-May-2024 18:00Few Clouds29°C9 mph, SW19%10000m1015hPa43%